sensor_id;sensor_type;location;lat;lon;timestamp;temperature;humidity
35541;DHT22;21650;48.840;9.162;2023-01-29T00:00:07;0.50;99.90
35541;DHT22;21650;48.840;9.162;2023-01-29T00:02:37;0.50;99.90
35541;DHT22;21650;48.840;9.162;2023-01-29T00:05:04;0.50;99.90
35541;DHT22;21650;48.840;9.162;2023-01-29T00:07:30;0.60;99.90
35541;DHT22;21650;48.840;9.162;2023-01-29T00:09:56;0.60;99.90
35541;DHT22;21650;48.840;9.162;2023-01-29T00:12:21;0.50;99.90
35541;DHT22;21650;48.840;9.162;2023-01-29T00:14:47;0.50;99.90
35541;DHT22;21650;48.840;9.162;2023-01-29T00:17:12;0.60;99.90
35541;DHT22;21650;48.840;9.162;2023-01-29T00:19:38;0.50;99.90
35541;DHT22;21650;48.840;9.162;2023-01-29T00:22:04;0.50;99.90
35541;DHT22;21650;48.840;9.162;2023-01-29T00:24:29;0.50;99.90
35541;DHT22;21650;48.840;9.162;2023-01-29T00:26:55;0.50;99.90
35541;DHT22;21650;48.840;9.162;2023-01-29T00:29:20;0.40;99.90
35541;DHT22;21650;48.840;9.162;2023-01-29T00:31:46;0.40;99.90
35541;DHT22;21650;48.840;9.162;2023-01-29T00:34:11;0.40;99.90
35541;DHT22;21650;48.840;9.162;2023-01-29T00:36:37;0.40;99.90
35541;DHT22;21650;48.840;9.162;2023-01-29T00:39:02;0.30;99.90
35541;DHT22;21650;48.840;9.162;2023-01-29T00:41:35;0.30;99.90
35541;DHT22;21650;48.840;9.162;2023-01-29T00:44:19;0.30;99.90
35541;DHT22;21650;48.840;9.162;2023-01-29T00:47:04;0.30;99.90
35541;DHT22;21650;48.840;9.162;2023-01-29T00:49:49;0.40;99.90
35541;DHT22;21650;48.840;9.162;2023-01-29T00:52:15;0.40;99.90
35541;DHT22;21650;48.840;9.162;2023-01-29T00:54:51;0.40;99.90
35541;DHT22;21650;48.840;9.162;2023-01-29T00:57:17;0.40;99.90
35541;DHT22;21650;48.840;9.162;2023-01-29T00:59:42;0.30;99.90
35541;DHT22;21650;48.840;9.162;2023-01-29T01:02:08;0.20;99.90
35541;DHT22;21650;48.840;9.162;2023-01-29T01:04:52;0.30;99.90
35541;DHT22;21650;48.840;9.162;2023-01-29T01:07:17;0.20;99.90
35541;DHT22;21650;48.840;9.162;2023-01-29T01:09:43;0.20;99.90
35541;DHT22;21650;48.840;9.162;2023-01-29T01:12:28;0.20;99.90
35541;DHT22;21650;48.840;9.162;2023-01-29T01:14:54;0.20;99.90
35541;DHT22;21650;48.840;9.162;2023-01-29T01:17:19;0.20;99.90
35541;DHT22;21650;48.840;9.162;2023-01-29T01:19:45;0.20;99.90
35541;DHT22;21650;48.840;9.162;2023-01-29T01:22:10;0.10;99.90
35541;DHT22;21650;48.840;9.162;2023-01-29T01:24:36;0.10;99.90
35541;DHT22;21650;48.840;9.162;2023-01-29T01:27:02;0.10;99.90
35541;DHT22;21650;48.840;9.162;2023-01-29T01:29:27;0.20;99.90
35541;DHT22;21650;48.840;9.162;2023-01-29T01:31:53;0.20;99.90
35541;DHT22;21650;48.840;9.162;2023-01-29T01:34:19;0.20;99.90
35541;DHT22;21650;48.840;9.162;2023-01-29T01:36:46;0.20;99.90
35541;DHT22;21650;48.840;9.162;2023-01-29T01:39:12;0.30;99.90
35541;DHT22;21650;48.840;9.162;2023-01-29T01:41:38;0.30;99.90
35541;DHT22;21650;48.840;9.162;2023-01-29T01:44:04;0.20;99.90
35541;DHT22;21650;48.840;9.162;2023-01-29T01:46:35;0.20;99.90
35541;DHT22;21650;48.840;9.162;2023-01-29T01:49:03;0.30;99.90
35541;DHT22;21650;48.840;9.162;2023-01-29T01:51:32;0.30;99.90
35541;DHT22;21650;48.840;9.162;2023-01-29T01:54:34;0.20;99.90
35541;DHT22;21650;48.840;9.162;2023-01-29T01:56:58;0.20;99.90
35541;DHT22;21650;48.840;9.162;2023-01-29T01:59:34;0.10;99.90
35541;DHT22;21650;48.840;9.162;2023-01-29T02:02:01;0.00;99.90
35541;DHT22;21650;48.840;9.162;2023-01-29T02:04:47;0.10;99.90
35541;DHT22;21650;48.840;9.162;2023-01-29T02:07:31;0.00;99.90
35541;DHT22;21650;48.840;9.162;2023-01-29T02:10:17;0.10;99.90
35541;DHT22;21650;48.840;9.162;2023-01-29T02:12:43;0.10;99.90
35541;DHT22;21650;48.840;9.162;2023-01-29T02:15:10;0.10;99.90
35541;DHT22;21650;48.840;9.162;2023-01-29T02:17:36;0.00;99.90
35541;DHT22;21650;48.840;9.162;2023-01-29T02:20:25;0.10;99.90
35541;DHT22;21650;48.840;9.162;2023-01-29T02:26:08;0.10;99.90
35541;DHT22;21650;48.840;9.162;2023-01-29T02:29:08;0.10;99.90
35541;DHT22;21650;48.840;9.162;2023-01-29T02:31:55;0.00;99.90
35541;DHT22;21650;48.840;9.162;2023-01-29T02:34:32;0.00;99.90
35541;DHT22;21650;48.840;9.162;2023-01-29T02:37:22;-0.10;99.90
35541;DHT22;21650;48.840;9.162;2023-01-29T02:42:49;0.00;99.90
35541;DHT22;21650;48.840;9.162;2023-01-29T02:45:27;-0.10;99.90
35541;DHT22;21650;48.840;9.162;2023-01-29T02:48:00;-0.10;99.90
35541;DHT22;21650;48.840;9.162;2023-01-29T02:50:37;-0.10;99.90
35541;DHT22;21650;48.840;9.162;2023-01-29T02:53:14;-0.10;99.90
35541;DHT22;21650;48.840;9.162;2023-01-29T02:58:29;0.00;99.90
35541;DHT22;21650;48.840;9.162;2023-01-29T03:04:05;0.00;99.90
35541;DHT22;21650;48.840;9.162;2023-01-29T03:06:37;0.00;99.90
35541;DHT22;21650;48.840;9.162;2023-01-29T03:09:08;0.00;99.90
35541;DHT22;21650;48.840;9.162;2023-01-29T03:11:38;-0.10;99.90
35541;DHT22;21650;48.840;9.162;2023-01-29T03:14:11;0.00;99.90
35541;DHT22;21650;48.840;9.162;2023-01-29T03:16:38;-0.20;99.90
35541;DHT22;21650;48.840;9.162;2023-01-29T03:19:09;-0.10;99.90
35541;DHT22;21650;48.840;9.162;2023-01-29T03:21:43;-0.10;99.90
35541;DHT22;21650;48.840;9.162;2023-01-29T03:24:34;-0.10;99.90
35541;DHT22;21650;48.840;9.162;2023-01-29T03:27:25;-0.10;99.90
35541;DHT22;21650;48.840;9.162;2023-01-29T03:30:12;-0.10;99.90
35541;DHT22;21650;48.840;9.162;2023-01-29T03:33:01;0.00;99.90
35541;DHT22;21650;48.840;9.162;2023-01-29T03:35:28;0.00;99.90
35541;DHT22;21650;48.840;9.162;2023-01-29T03:38:00;0.00;99.90
35541;DHT22;21650;48.840;9.162;2023-01-29T03:40:28;-0.10;99.90
35541;DHT22;21650;48.840;9.162;2023-01-29T03:43:10;0.00;99.90
35541;DHT22;21650;48.840;9.162;2023-01-29T03:46:04;-0.10;99.90
35541;DHT22;21650;48.840;9.162;2023-01-29T03:51:10;-0.20;99.90
35541;DHT22;21650;48.840;9.162;2023-01-29T03:53:47;-0.30;99.90
35541;DHT22;21650;48.840;9.162;2023-01-29T03:56:38;-0.40;99.90
35541;DHT22;21650;48.840;9.162;2023-01-29T04:02:12;-0.40;99.90
35541;DHT22;21650;48.840;9.162;2023-01-29T04:04:42;-0.30;99.90
35541;DHT22;21650;48.840;9.162;2023-01-29T04:07:16;-0.30;99.90
35541;DHT22;21650;48.840;9.162;2023-01-29T04:09:52;-0.30;99.90
35541;DHT22;21650;48.840;9.162;2023-01-29T04:12:28;-0.30;99.90
35541;DHT22;21650;48.840;9.162;2023-01-29T04:14:56;-0.20;99.90
35541;DHT22;21650;48.840;9.162;2023-01-29T04:17:27;-0.20;99.90
35541;DHT22;21650;48.840;9.162;2023-01-29T04:19:58;-0.20;99.90
35541;DHT22;21650;48.840;9.162;2023-01-29T04:22:45;-0.20;99.90
35541;DHT22;21650;48.840;9.162;2023-01-29T04:25:27;-0.20;99.90
35541;DHT22;21650;48.840;9.162;2023-01-29T04:33:28;-0.20;99.90
35541;DHT22;21650;48.840;9.162;2023-01-29T04:36:06;-0.20;99.90
35541;DHT22;21650;48.840;9.162;2023-01-29T04:47:23;-0.10;99.90
35541;DHT22;21650;48.840;9.162;2023-01-29T04:55:34;-0.30;99.90
35541;DHT22;21650;48.840;9.162;2023-01-29T04:58:14;-0.30;99.90
35541;DHT22;21650;48.840;9.162;2023-01-29T05:00:44;-0.40;99.90
35541;DHT22;21650;48.840;9.162;2023-01-29T05:03:14;-0.30;99.90
35541;DHT22;21650;48.840;9.162;2023-01-29T05:05:43;-0.40;99.90
35541;DHT22;21650;48.840;9.162;2023-01-29T05:08:11;-0.40;99.90
35541;DHT22;21650;48.840;9.162;2023-01-29T05:10:38;-0.50;99.90
35541;DHT22;21650;48.840;9.162;2023-01-29T05:13:07;-0.50;99.90
35541;DHT22;21650;48.840;9.162;2023-01-29T05:15:38;-0.50;99.90
35541;DHT22;21650;48.840;9.162;2023-01-29T05:18:05;-0.50;99.90
35541;DHT22;21650;48.840;9.162;2023-01-29T05:20:36;-0.50;99.90
35541;DHT22;21650;48.840;9.162;2023-01-29T05:23:03;-0.40;99.90
35541;DHT22;21650;48.840;9.162;2023-01-29T05:25:31;-0.40;99.90
35541;DHT22;21650;48.840;9.162;2023-01-29T05:27:57;-0.40;99.90
35541;DHT22;21650;48.840;9.162;2023-01-29T05:30:46;-0.50;99.90
35541;DHT22;21650;48.840;9.162;2023-01-29T05:33:14;-0.50;99.90
35541;DHT22;21650;48.840;9.162;2023-01-29T05:35:41;-0.50;99.90
35541;DHT22;21650;48.840;9.162;2023-01-29T05:38:07;-0.40;99.90
35541;DHT22;21650;48.840;9.162;2023-01-29T05:40:33;-0.40;99.90
35541;DHT22;21650;48.840;9.162;2023-01-29T05:42:59;-0.40;99.90
35541;DHT22;21650;48.840;9.162;2023-01-29T05:45:25;-0.50;99.90
35541;DHT22;21650;48.840;9.162;2023-01-29T05:47:55;-0.50;99.90
35541;DHT22;21650;48.840;9.162;2023-01-29T05:50:21;-0.50;99.90
35541;DHT22;21650;48.840;9.162;2023-01-29T05:52:46;-0.50;99.90
35541;DHT22;21650;48.840;9.162;2023-01-29T05:55:12;-0.50;99.90
35541;DHT22;21650;48.840;9.162;2023-01-29T05:57:39;-0.50;99.90
35541;DHT22;21650;48.840;9.162;2023-01-29T06:00:05;-0.50;99.90
35541;DHT22;21650;48.840;9.162;2023-01-29T06:02:31;-0.50;99.90
35541;DHT22;21650;48.840;9.162;2023-01-29T06:04:57;-0.40;99.90
35541;DHT22;21650;48.840;9.162;2023-01-29T06:07:23;-0.40;99.90
35541;DHT22;21650;48.840;9.162;2023-01-29T06:09:48;-0.40;99.90
35541;DHT22;21650;48.840;9.162;2023-01-29T06:12:14;-0.40;99.90
35541;DHT22;21650;48.840;9.162;2023-01-29T06:14:39;-0.40;99.90
35541;DHT22;21650;48.840;9.162;2023-01-29T06:17:05;-0.40;99.90
35541;DHT22;21650;48.840;9.162;2023-01-29T06:19:30;-0.40;99.90
35541;DHT22;21650;48.840;9.162;2023-01-29T06:21:56;-0.50;99.90
35541;DHT22;21650;48.840;9.162;2023-01-29T06:24:22;-0.60;99.90
35541;DHT22;21650;48.840;9.162;2023-01-29T06:26:47;-0.50;99.90
35541;DHT22;21650;48.840;9.162;2023-01-29T06:29:13;-0.50;99.90
35541;DHT22;21650;48.840;9.162;2023-01-29T06:31:38;-0.50;99.90
35541;DHT22;21650;48.840;9.162;2023-01-29T06:34:05;-0.40;99.90
35541;DHT22;21650;48.840;9.162;2023-01-29T06:36:31;-0.30;99.90
35541;DHT22;21650;48.840;9.162;2023-01-29T06:38:56;-0.20;99.90
35541;DHT22;21650;48.840;9.162;2023-01-29T06:41:22;-0.20;99.90
35541;DHT22;21650;48.840;9.162;2023-01-29T06:43:50;-0.20;99.90
35541;DHT22;21650;48.840;9.162;2023-01-29T06:46:15;-0.40;99.90
35541;DHT22;21650;48.840;9.162;2023-01-29T06:48:41;-0.50;99.90
35541;DHT22;21650;48.840;9.162;2023-01-29T06:51:08;-0.60;99.90
35541;DHT22;21650;48.840;9.162;2023-01-29T06:53:35;-0.60;99.90
35541;DHT22;21650;48.840;9.162;2023-01-29T06:56:01;-0.60;99.90
35541;DHT22;21650;48.840;9.162;2023-01-29T06:58:27;-0.50;99.90
35541;DHT22;21650;48.840;9.162;2023-01-29T07:00:53;-0.50;99.90
35541;DHT22;21650;48.840;9.162;2023-01-29T07:03:18;-0.40;99.90
35541;DHT22;21650;48.840;9.162;2023-01-29T07:05:51;-0.50;99.90
35541;DHT22;21650;48.840;9.162;2023-01-29T07:08:17;-0.40;99.90
35541;DHT22;21650;48.840;9.162;2023-01-29T07:10:43;-0.40;99.90
35541;DHT22;21650;48.840;9.162;2023-01-29T07:13:08;-0.40;99.90
35541;DHT22;21650;48.840;9.162;2023-01-29T07:15:34;-0.40;99.90
35541;DHT22;21650;48.840;9.162;2023-01-29T07:18:01;-0.40;99.90
35541;DHT22;21650;48.840;9.162;2023-01-29T07:20:29;-0.40;99.90
35541;DHT22;21650;48.840;9.162;2023-01-29T07:22:56;-0.40;99.90
35541;DHT22;21650;48.840;9.162;2023-01-29T07:25:23;-0.40;99.90
35541;DHT22;21650;48.840;9.162;2023-01-29T07:27:49;-0.30;99.90
35541;DHT22;21650;48.840;9.162;2023-01-29T07:30:15;-0.20;99.90
35541;DHT22;21650;48.840;9.162;2023-01-29T07:32:41;-0.10;99.90
35541;DHT22;21650;48.840;9.162;2023-01-29T07:35:07;-0.20;99.90
35541;DHT22;21650;48.840;9.162;2023-01-29T07:37:33;-0.20;99.90
35541;DHT22;21650;48.840;9.162;2023-01-29T07:39:58;-0.20;99.90
35541;DHT22;21650;48.840;9.162;2023-01-29T07:42:24;-0.20;99.90
35541;DHT22;21650;48.840;9.162;2023-01-29T07:44:49;-0.20;99.90
35541;DHT22;21650;48.840;9.162;2023-01-29T07:47:15;-0.40;99.90
35541;DHT22;21650;48.840;9.162;2023-01-29T07:49:41;-0.40;99.90
35541;DHT22;21650;48.840;9.162;2023-01-29T07:52:06;-0.30;99.90
35541;DHT22;21650;48.840;9.162;2023-01-29T07:54:32;-0.30;99.90
35541;DHT22;21650;48.840;9.162;2023-01-29T07:56:57;-0.30;99.90
35541;DHT22;21650;48.840;9.162;2023-01-29T07:59:23;-0.30;99.90
35541;DHT22;21650;48.840;9.162;2023-01-29T08:01:48;-0.20;99.90
35541;DHT22;21650;48.840;9.162;2023-01-29T08:04:14;-0.20;99.90
35541;DHT22;21650;48.840;9.162;2023-01-29T08:06:40;-0.20;99.90
35541;DHT22;21650;48.840;9.162;2023-01-29T08:09:05;-0.10;99.90
35541;DHT22;21650;48.840;9.162;2023-01-29T08:11:31;0.00;99.90
35541;DHT22;21650;48.840;9.162;2023-01-29T08:13:57;-0.10;99.90
35541;DHT22;21650;48.840;9.162;2023-01-29T08:16:22;0.00;99.90
35541;DHT22;21650;48.840;9.162;2023-01-29T08:18:48;-0.10;99.90
35541;DHT22;21650;48.840;9.162;2023-01-29T08:21:14;-0.10;99.90
35541;DHT22;21650;48.840;9.162;2023-01-29T08:23:40;-0.10;99.90
35541;DHT22;21650;48.840;9.162;2023-01-29T08:26:06;0.00;99.90
35541;DHT22;21650;48.840;9.162;2023-01-29T08:28:31;0.00;99.90
35541;DHT22;21650;48.840;9.162;2023-01-29T08:30:57;0.00;99.90
35541;DHT22;21650;48.840;9.162;2023-01-29T08:33:23;-0.20;99.90
35541;DHT22;21650;48.840;9.162;2023-01-29T08:35:50;-0.10;99.90
35541;DHT22;21650;48.840;9.162;2023-01-29T08:38:16;-0.10;99.90
35541;DHT22;21650;48.840;9.162;2023-01-29T08:40:42;-0.10;99.90
35541;DHT22;21650;48.840;9.162;2023-01-29T08:43:10;0.00;99.90
35541;DHT22;21650;48.840;9.162;2023-01-29T08:45:39;0.00;99.90
35541;DHT22;21650;48.840;9.162;2023-01-29T08:48:05;0.00;99.90
35541;DHT22;21650;48.840;9.162;2023-01-29T08:50:31;0.00;99.90
35541;DHT22;21650;48.840;9.162;2023-01-29T08:53:00;0.00;99.90
35541;DHT22;21650;48.840;9.162;2023-01-29T08:55:26;0.00;99.90
35541;DHT22;21650;48.840;9.162;2023-01-29T08:57:52;0.10;99.90
35541;DHT22;21650;48.840;9.162;2023-01-29T09:00:18;0.10;99.90
35541;DHT22;21650;48.840;9.162;2023-01-29T09:02:44;0.10;99.90
35541;DHT22;21650;48.840;9.162;2023-01-29T09:05:10;0.20;99.90
35541;DHT22;21650;48.840;9.162;2023-01-29T09:07:35;0.30;99.90
35541;DHT22;21650;48.840;9.162;2023-01-29T09:10:01;0.30;99.90
35541;DHT22;21650;48.840;9.162;2023-01-29T09:12:27;0.40;99.90
35541;DHT22;21650;48.840;9.162;2023-01-29T09:14:52;0.50;99.90
35541;DHT22;21650;48.840;9.162;2023-01-29T09:17:18;0.50;99.90
35541;DHT22;21650;48.840;9.162;2023-01-29T09:19:44;0.50;99.90
35541;DHT22;21650;48.840;9.162;2023-01-29T09:22:09;0.50;99.90
35541;DHT22;21650;48.840;9.162;2023-01-29T09:24:35;0.50;99.90
35541;DHT22;21650;48.840;9.162;2023-01-29T09:27:01;0.50;99.90
35541;DHT22;21650;48.840;9.162;2023-01-29T09:29:26;0.40;99.90
35541;DHT22;21650;48.840;9.162;2023-01-29T09:31:52;0.40;99.90
35541;DHT22;21650;48.840;9.162;2023-01-29T09:34:17;0.50;99.90
35541;DHT22;21650;48.840;9.162;2023-01-29T09:36:43;0.60;99.90
35541;DHT22;21650;48.840;9.162;2023-01-29T09:39:09;0.50;99.90
35541;DHT22;21650;48.840;9.162;2023-01-29T09:42:16;0.70;99.90
35541;DHT22;21650;48.840;9.162;2023-01-29T09:47:27;0.80;99.90
35541;DHT22;21650;48.840;9.162;2023-01-29T09:50:02;0.90;99.90
35541;DHT22;21650;48.840;9.162;2023-01-29T09:55:29;1.10;99.90
35541;DHT22;21650;48.840;9.162;2023-01-29T10:00:35;1.30;99.90
35541;DHT22;21650;48.840;9.162;2023-01-29T10:09:27;1.70;99.90
35541;DHT22;21650;48.840;9.162;2023-01-29T10:14:58;2.00;99.90
35541;DHT22;21650;48.840;9.162;2023-01-29T10:25:54;2.10;99.90
35541;DHT22;21650;48.840;9.162;2023-01-29T10:31:02;2.10;99.90
35541;DHT22;21650;48.840;9.162;2023-01-29T10:33:30;1.90;99.90
35541;DHT22;21650;48.840;9.162;2023-01-29T10:36:02;1.80;99.90
35541;DHT22;21650;48.840;9.162;2023-01-29T10:46:22;1.90;99.90
35541;DHT22;21650;48.840;9.162;2023-01-29T10:48:59;2.00;99.90
35541;DHT22;21650;48.840;9.162;2023-01-29T10:57:51;2.10;99.90
35541;DHT22;21650;48.840;9.162;2023-01-29T11:00:22;2.20;99.90
35541;DHT22;21650;48.840;9.162;2023-01-29T11:02:50;2.10;99.90
35541;DHT22;21650;48.840;9.162;2023-01-29T11:05:28;2.10;99.90
35541;DHT22;21650;48.840;9.162;2023-01-29T11:08:09;2.10;99.90
35541;DHT22;21650;48.840;9.162;2023-01-29T11:10:41;2.00;99.90
35541;DHT22;21650;48.840;9.162;2023-01-29T11:13:13;1.90;99.90
35541;DHT22;21650;48.840;9.162;2023-01-29T11:15:39;1.90;99.90
35541;DHT22;21650;48.840;9.162;2023-01-29T11:20:32;1.70;99.90
35541;DHT22;21650;48.840;9.162;2023-01-29T11:22:58;1.60;99.90
35541;DHT22;21650;48.840;9.162;2023-01-29T11:25:25;1.70;99.90
35541;DHT22;21650;48.840;9.162;2023-01-29T11:27:58;1.60;99.90
35541;DHT22;21650;48.840;9.162;2023-01-29T11:30:36;1.60;99.90
35541;DHT22;21650;48.840;9.162;2023-01-29T11:33:18;1.60;99.90
35541;DHT22;21650;48.840;9.162;2023-01-29T11:35:46;1.80;99.90
35541;DHT22;21650;48.840;9.162;2023-01-29T11:40:40;2.10;99.90
35541;DHT22;21650;48.840;9.162;2023-01-29T11:43:22;2.00;99.90
35541;DHT22;21650;48.840;9.162;2023-01-29T11:45:55;2.00;99.90
35541;DHT22;21650;48.840;9.162;2023-01-29T11:48:32;2.00;99.90
35541;DHT22;21650;48.840;9.162;2023-01-29T11:51:00;1.90;99.90
35541;DHT22;21650;48.840;9.162;2023-01-29T11:53:37;1.90;99.90
35541;DHT22;21650;48.840;9.162;2023-01-29T11:56:28;2.00;99.90
35541;DHT22;21650;48.840;9.162;2023-01-29T11:58:53;1.90;99.90
35541;DHT22;21650;48.840;9.162;2023-01-29T12:03:57;2.10;99.90
35541;DHT22;21650;48.840;9.162;2023-01-29T12:06:33;2.10;99.90
35541;DHT22;21650;48.840;9.162;2023-01-29T12:09:02;2.20;99.90
35541;DHT22;21650;48.840;9.162;2023-01-29T12:11:34;2.30;99.90
35541;DHT22;21650;48.840;9.162;2023-01-29T12:14:02;2.20;99.90
35541;DHT22;21650;48.840;9.162;2023-01-29T12:16:32;2.10;99.90
35541;DHT22;21650;48.840;9.162;2023-01-29T12:19:20;2.20;99.90
35541;DHT22;21650;48.840;9.162;2023-01-29T12:21:59;2.30;99.90
35541;DHT22;21650;48.840;9.162;2023-01-29T12:29:55;2.30;99.90
35541;DHT22;21650;48.840;9.162;2023-01-29T12:35:02;2.20;99.90
35541;DHT22;21650;48.840;9.162;2023-01-29T12:40:15;2.30;99.90
35541;DHT22;21650;48.840;9.162;2023-01-29T12:42:46;2.10;99.90
35541;DHT22;21650;48.840;9.162;2023-01-29T12:45:22;2.30;99.90
35541;DHT22;21650;48.840;9.162;2023-01-29T12:47:56;2.20;99.90
35541;DHT22;21650;48.840;9.162;2023-01-29T12:50:31;2.30;99.90
35541;DHT22;21650;48.840;9.162;2023-01-29T12:55:59;2.50;99.90
35541;DHT22;21650;48.840;9.162;2023-01-29T12:58:37;2.50;99.90
35541;DHT22;21650;48.840;9.162;2023-01-29T13:01:13;2.50;99.90
35541;DHT22;21650;48.840;9.162;2023-01-29T13:03:45;2.40;99.90
35541;DHT22;21650;48.840;9.162;2023-01-29T13:06:14;2.40;99.90
35541;DHT22;21650;48.840;9.162;2023-01-29T13:08:51;2.50;99.90
35541;DHT22;21650;48.840;9.162;2023-01-29T13:11:24;2.50;99.90
35541;DHT22;21650;48.840;9.162;2023-01-29T13:13:59;2.60;99.90
35541;DHT22;21650;48.840;9.162;2023-01-29T13:16:29;2.70;99.90
35541;DHT22;21650;48.840;9.162;2023-01-29T13:19:01;2.70;99.90
35541;DHT22;21650;48.840;9.162;2023-01-29T13:21:34;2.60;99.90
35541;DHT22;21650;48.840;9.162;2023-01-29T13:24:10;2.70;99.90
35541;DHT22;21650;48.840;9.162;2023-01-29T13:26:37;2.80;99.90
35541;DHT22;21650;48.840;9.162;2023-01-29T13:29:03;2.70;99.90
35541;DHT22;21650;48.840;9.162;2023-01-29T13:31:32;2.70;99.90
35541;DHT22;21650;48.840;9.162;2023-01-29T13:34:34;2.80;99.90
35541;DHT22;21650;48.840;9.162;2023-01-29T13:37:10;2.70;99.90
35541;DHT22;21650;48.840;9.162;2023-01-29T13:39:47;2.50;99.90
35541;DHT22;21650;48.840;9.162;2023-01-29T13:42:18;2.50;99.90
35541;DHT22;21650;48.840;9.162;2023-01-29T13:44:54;2.70;99.90
35541;DHT22;21650;48.840;9.162;2023-01-29T13:47:29;2.80;99.90
35541;DHT22;21650;48.840;9.162;2023-01-29T13:50:05;3.00;99.90
35541;DHT22;21650;48.840;9.162;2023-01-29T13:52:45;3.10;99.90
35541;DHT22;21650;48.840;9.162;2023-01-29T14:07:56;2.90;99.90
35541;DHT22;21650;48.840;9.162;2023-01-29T14:10:24;2.90;99.90
35541;DHT22;21650;48.840;9.162;2023-01-29T14:13:33;2.80;99.90
35541;DHT22;21650;48.840;9.162;2023-01-29T14:18:30;2.60;99.90
35541;DHT22;21650;48.840;9.162;2023-01-29T14:21:01;2.50;99.90
35541;DHT22;21650;48.840;9.162;2023-01-29T14:23:54;2.40;99.90
35541;DHT22;21650;48.840;9.162;2023-01-29T14:29:22;2.40;99.90
35541;DHT22;21650;48.840;9.162;2023-01-29T14:31:54;2.50;99.90
35541;DHT22;21650;48.840;9.162;2023-01-29T14:36:53;2.40;99.90
35541;DHT22;21650;48.840;9.162;2023-01-29T14:39:47;2.40;99.90
35541;DHT22;21650;48.840;9.162;2023-01-29T14:42:35;2.30;99.90
35541;DHT22;21650;48.840;9.162;2023-01-29T14:47:55;2.20;99.90
35541;DHT22;21650;48.840;9.162;2023-01-29T14:53:26;2.10;99.90
35541;DHT22;21650;48.840;9.162;2023-01-29T14:58:32;2.10;99.90
35541;DHT22;21650;48.840;9.162;2023-01-29T15:01:00;2.10;99.90
35541;DHT22;21650;48.840;9.162;2023-01-29T15:03:38;2.10;99.90
35541;DHT22;21650;48.840;9.162;2023-01-29T15:06:06;2.00;99.90
35541;DHT22;21650;48.840;9.162;2023-01-29T15:08:39;2.00;99.90
35541;DHT22;21650;48.840;9.162;2023-01-29T15:11:14;2.00;99.90
35541;DHT22;21650;48.840;9.162;2023-01-29T15:14:07;2.00;99.90
35541;DHT22;21650;48.840;9.162;2023-01-29T15:19:43;2.00;99.90
35541;DHT22;21650;48.840;9.162;2023-01-29T15:22:21;2.10;99.90
35541;DHT22;21650;48.840;9.162;2023-01-29T15:25:02;2.00;99.90
35541;DHT22;21650;48.840;9.162;2023-01-29T15:27:28;2.00;99.90
35541;DHT22;21650;48.840;9.162;2023-01-29T15:30:00;1.90;99.90
35541;DHT22;21650;48.840;9.162;2023-01-29T15:32:36;1.90;99.90
35541;DHT22;21650;48.840;9.162;2023-01-29T15:35:30;1.90;99.90
35541;DHT22;21650;48.840;9.162;2023-01-29T15:38:03;1.90;99.90
35541;DHT22;21650;48.840;9.162;2023-01-29T15:40:29;1.80;99.90
35541;DHT22;21650;48.840;9.162;2023-01-29T15:42:55;1.80;99.90
35541;DHT22;21650;48.840;9.162;2023-01-29T15:45:31;1.70;99.90
35541;DHT22;21650;48.840;9.162;2023-01-29T15:48:10;1.70;99.90
35541;DHT22;21650;48.840;9.162;2023-01-29T15:50:40;1.70;99.90
35541;DHT22;21650;48.840;9.162;2023-01-29T15:53:12;1.70;99.90
35541;DHT22;21650;48.840;9.162;2023-01-29T15:55:39;1.60;99.90
35541;DHT22;21650;48.840;9.162;2023-01-29T15:58:06;1.60;99.90
35541;DHT22;21650;48.840;9.162;2023-01-29T16:00:32;1.60;99.90
35541;DHT22;21650;48.840;9.162;2023-01-29T16:02:58;1.50;99.90
35541;DHT22;21650;48.840;9.162;2023-01-29T16:05:30;1.50;99.90
35541;DHT22;21650;48.840;9.162;2023-01-29T16:07:58;1.40;99.90
35541;DHT22;21650;48.840;9.162;2023-01-29T16:10:27;1.40;99.90
35541;DHT22;21650;48.840;9.162;2023-01-29T16:12:54;1.40;99.90
35541;DHT22;21650;48.840;9.162;2023-01-29T16:17:55;1.30;99.90
35541;DHT22;21650;48.840;9.162;2023-01-29T16:20:39;1.20;99.90
35541;DHT22;21650;48.840;9.162;2023-01-29T16:23:15;1.20;99.90
35541;DHT22;21650;48.840;9.162;2023-01-29T16:25:41;1.10;99.90
35541;DHT22;21650;48.840;9.162;2023-01-29T16:28:08;1.10;99.90
35541;DHT22;21650;48.840;9.162;2023-01-29T16:30:36;1.10;99.90
35541;DHT22;21650;48.840;9.162;2023-01-29T16:33:07;1.00;99.90
35541;DHT22;21650;48.840;9.162;2023-01-29T16:35:35;0.90;99.90
35541;DHT22;21650;48.840;9.162;2023-01-29T16:38:14;0.90;99.90
35541;DHT22;21650;48.840;9.162;2023-01-29T16:48:42;0.80;99.90
35541;DHT22;21650;48.840;9.162;2023-01-29T16:51:27;0.70;99.90
35541;DHT22;21650;48.840;9.162;2023-01-29T16:54:00;0.70;99.90
35541;DHT22;21650;48.840;9.162;2023-01-29T16:56:31;0.70;99.90
35541;DHT22;21650;48.840;9.162;2023-01-29T16:58:57;0.60;99.90
35541;DHT22;21650;48.840;9.162;2023-01-29T17:01:25;0.60;99.90
35541;DHT22;21650;48.840;9.162;2023-01-29T17:04:03;0.60;99.90
35541;DHT22;21650;48.840;9.162;2023-01-29T17:06:32;0.50;99.90
35541;DHT22;21650;48.840;9.162;2023-01-29T17:08:58;0.50;99.90
35541;DHT22;21650;48.840;9.162;2023-01-29T17:11:32;0.50;99.90
35541;DHT22;21650;48.840;9.162;2023-01-29T17:13:58;0.40;99.90
35541;DHT22;21650;48.840;9.162;2023-01-29T17:16:32;0.40;99.90
35541;DHT22;21650;48.840;9.162;2023-01-29T17:18:59;0.40;99.90
35541;DHT22;21650;48.840;9.162;2023-01-29T17:21:25;0.40;99.90
35541;DHT22;21650;48.840;9.162;2023-01-29T17:23:51;0.40;99.90
35541;DHT22;21650;48.840;9.162;2023-01-29T17:26:17;0.30;99.90
35541;DHT22;21650;48.840;9.162;2023-01-29T17:28:43;0.30;99.90
35541;DHT22;21650;48.840;9.162;2023-01-29T17:31:09;0.30;99.90
35541;DHT22;21650;48.840;9.162;2023-01-29T17:33:37;0.30;99.90
35541;DHT22;21650;48.840;9.162;2023-01-29T17:36:04;0.30;99.90
35541;DHT22;21650;48.840;9.162;2023-01-29T17:38:29;0.30;99.90
35541;DHT22;21650;48.840;9.162;2023-01-29T17:43:25;0.20;99.90
35541;DHT22;21650;48.840;9.162;2023-01-29T17:45:51;0.20;99.90
35541;DHT22;21650;48.840;9.162;2023-01-29T17:48:22;0.10;99.90
35541;DHT22;21650;48.840;9.162;2023-01-29T17:50:50;0.10;99.90
35541;DHT22;21650;48.840;9.162;2023-01-29T17:53:18;0.00;99.90
35541;DHT22;21650;48.840;9.162;2023-01-29T17:55:44;0.10;99.90
35541;DHT22;21650;48.840;9.162;2023-01-29T17:58:21;0.10;99.90
35541;DHT22;21650;48.840;9.162;2023-01-29T18:00:47;0.10;99.90
35541;DHT22;21650;48.840;9.162;2023-01-29T18:03:14;0.10;99.90
35541;DHT22;21650;48.840;9.162;2023-01-29T18:05:43;0.10;99.90
35541;DHT22;21650;48.840;9.162;2023-01-29T18:08:42;0.00;99.90
35541;DHT22;21650;48.840;9.162;2023-01-29T18:11:11;0.00;99.90
35541;DHT22;21650;48.840;9.162;2023-01-29T18:13:36;-0.20;99.90
35541;DHT22;21650;48.840;9.162;2023-01-29T18:16:02;-0.20;99.90
35541;DHT22;21650;48.840;9.162;2023-01-29T18:18:28;-0.20;99.90
35541;DHT22;21650;48.840;9.162;2023-01-29T18:20:53;-0.30;99.90
35541;DHT22;21650;48.840;9.162;2023-01-29T18:23:19;-0.30;99.90
35541;DHT22;21650;48.840;9.162;2023-01-29T18:25:44;-0.30;99.90
35541;DHT22;21650;48.840;9.162;2023-01-29T18:28:14;-0.30;99.90